Time;durP1;ratioP1;P1;durP2;ratioP2;P2;SDS_P1;SDS_P2;PMS_P1;PMS_P2;Temp;Humidity;BMP_temperature;BMP_pressure;BME280_temperature;BME280_humidity;BME280_pressure;Samples;Min_cycle;Max_cycle;Signal;HPM_P1;HPM_P2
2021/08/31 00:01:06;;;;;;;19.13;11.27;;;;;;;;;;5005768;28;20251;-84
2021/08/31 00:03:35;;;;;;;24.90;12.47;;;;;;;;;;5014319;28;20208;-84
2021/08/31 00:06:04;;;;;;;20.43;10.90;;;;;;;;;;5014239;28;20234;-83
2021/08/31 00:08:33;;;;;;;20.97;11.30;;;;;;;;;;5010408;28;20227;-84
2021/08/31 00:11:02;;;;;;;20.57;11.70;;;;;;;;;;5003807;28;20225;-84
2021/08/31 00:13:29;;;;;;;22.30;12.70;;;;;;;;;;5003810;28;20204;-84
2021/08/31 00:15:57;;;;;;;19.53;11.47;;;;;;;;;;5000558;28;20223;-83
2021/08/31 00:18:24;;;;;;;17.83;10.83;;;;;;;;;;5002024;28;20201;-84
2021/08/31 00:20:52;;;;;;;19.60;11.57;;;;;;;;;;5001719;28;20271;-83
2021/08/31 00:23:20;;;;;;;21.43;10.87;;;;;;;;;;5004101;28;20216;-83
2021/08/31 00:25:52;;;;;;;21.70;11.87;;;;;;;;;;5006606;28;20307;-84
2021/08/31 00:28:19;;;;;;;26.20;12.10;;;;;;;;;;5003572;28;20220;-84
2021/08/31 00:30:46;;;;;;;22.60;11.27;;;;;;;;;;5005123;28;20311;-83
2021/08/31 00:33:13;;;;;;;22.53;11.73;;;;;;;;;;4997803;28;20828;-83
2021/08/31 00:35:40;;;;;;;20.20;11.23;;;;;;;;;;5003911;28;20299;-85
2021/08/31 00:38:09;;;;;;;27.47;12.03;;;;;;;;;;5005884;28;20709;-83
2021/08/31 00:40:36;;;;;;;19.07;11.17;;;;;;;;;;5004838;28;20219;-83
2021/08/31 00:43:05;;;;;;;19.67;11.50;;;;;;;;;;5002183;28;20209;-84
2021/08/31 00:45:32;;;;;;;22.17;10.83;;;;;;;;;;5004353;28;20670;-83
2021/08/31 00:47:59;;;;;;;19.27;11.17;;;;;;;;;;5002675;28;20287;-85
2021/08/31 00:50:27;;;;;;;20.80;12.07;;;;;;;;;;5003806;28;20243;-84
2021/08/31 00:52:54;;;;;;;17.27;9.83;;;;;;;;;;5005158;28;20220;-84
2021/08/31 00:55:22;;;;;;;23.30;11.97;;;;;;;;;;4999631;28;20219;-84
2021/08/31 00:57:50;;;;;;;19.13;10.47;;;;;;;;;;5011643;28;20200;-84
2021/08/31 01:00:17;;;;;;;20.90;11.90;;;;;;;;;;5009649;28;20735;-84
2021/08/31 01:02:45;;;;;;;22.30;11.90;;;;;;;;;;5009353;28;20218;-83
2021/08/31 01:05:12;;;;;;;20.73;11.60;;;;;;;;;;5004183;28;20208;-85
2021/08/31 01:07:39;;;;;;;24.10;11.13;;;;;;;;;;5007272;28;20667;-84
2021/08/31 01:10:09;;;;;;;18.07;10.60;;;;;;;;;;5006522;28;20271;-84
2021/08/31 01:12:40;;;;;;;19.53;10.73;;;;;;;;;;5005400;28;20232;-85
2021/08/31 01:15:08;;;;;;;19.93;11.20;;;;;;;;;;5001925;28;20208;-84
2021/08/31 01:17:35;;;;;;;21.50;10.97;;;;;;;;;;5003668;28;20665;-84
2021/08/31 01:20:03;;;;;;;19.07;10.20;;;;;;;;;;5007715;28;20722;-85
2021/08/31 01:22:30;;;;;;;21.17;12.10;;;;;;;;;;5002325;28;20327;-84
2021/08/31 01:24:59;;;;;;;25.27;11.10;;;;;;;;;;5006739;28;20217;-84
2021/08/31 01:27:26;;;;;;;17.73;10.43;;;;;;;;;;5006608;28;20230;-84
2021/08/31 01:29:54;;;;;;;19.20;9.67;;;;;;;;;;5002145;28;20607;-84
2021/08/31 01:32:22;;;;;;;21.03;10.50;;;;;;;;;;5004969;28;20224;-84
2021/08/31 01:34:50;;;;;;;23.23;10.63;;;;;;;;;;5004196;28;20247;-85
2021/08/31 01:37:17;;;;;;;20.27;10.83;;;;;;;;;;5006905;28;20224;-84
2021/08/31 01:39:45;;;;;;;17.57;9.93;;;;;;;;;;5004627;28;20489;-84
2021/08/31 01:42:13;;;;;;;21.50;10.37;;;;;;;;;;5005029;28;20506;-85
2021/08/31 01:44:41;;;;;;;28.80;10.67;;;;;;;;;;5006048;28;20215;-84
2021/08/31 01:47:11;;;;;;;18.13;10.00;;;;;;;;;;5021360;28;20275;-83
2021/08/31 01:49:38;;;;;;;20.00;10.50;;;;;;;;;;5024063;28;20208;-84
2021/08/31 01:52:06;;;;;;;20.73;10.17;;;;;;;;;;5021003;28;20315;-83
2021/08/31 01:54:33;;;;;;;17.57;10.80;;;;;;;;;;5008785;28;20210;-82
2021/08/31 01:57:00;;;;;;;18.10;10.60;;;;;;;;;;5009955;28;20283;-83
2021/08/31 01:59:28;;;;;;;23.03;11.13;;;;;;;;;;5006830;28;20216;-83
2021/08/31 02:01:56;;;;;;;19.27;10.47;;;;;;;;;;5007805;28;20263;-82
2021/08/31 02:04:23;;;;;;;21.87;11.13;;;;;;;;;;5008277;28;20273;-83
2021/08/31 02:06:50;;;;;;;16.00;9.57;;;;;;;;;;5009533;28;20231;-84
2021/08/31 02:09:17;;;;;;;18.40;10.00;;;;;;;;;;5006117;28;20196;-84
2021/08/31 02:11:45;;;;;;;19.47;10.27;;;;;;;;;;5006055;28;20682;-84
2021/08/31 02:14:12;;;;;;;23.97;9.80;;;;;;;;;;5007727;28;20736;-84
2021/08/31 02:16:41;;;;;;;23.70;10.30;;;;;;;;;;5008486;28;20699;-84
2021/08/31 02:19:08;;;;;;;22.10;9.53;;;;;;;;;;5005683;28;20235;-84
2021/08/31 02:21:35;;;;;;;21.27;10.43;;;;;;;;;;5004828;28;20664;-84
2021/08/31 02:24:02;;;;;;;22.17;10.03;;;;;;;;;;5004321;28;20232;-84
2021/08/31 02:26:31;;;;;;;16.97;9.27;;;;;;;;;;5008039;28;20232;-84
2021/08/31 02:28:58;;;;;;;20.20;10.23;;;;;;;;;;5002826;28;20312;-85
2021/08/31 02:31:26;;;;;;;17.53;9.57;;;;;;;;;;5005803;28;20224;-85
2021/08/31 02:33:54;;;;;;;15.67;8.63;;;;;;;;;;5004097;28;20747;-84
2021/08/31 02:36:21;;;;;;;15.03;8.93;;;;;;;;;;5004588;28;20225;-83
2021/08/31 02:38:49;;;;;;;25.87;9.83;;;;;;;;;;5005672;28;20244;-83
2021/08/31 02:41:16;;;;;;;18.97;9.47;;;;;;;;;;5002351;28;20266;-83
2021/08/31 02:43:43;;;;;;;19.50;9.60;;;;;;;;;;5004074;28;20711;-83
2021/08/31 02:46:10;;;;;;;16.50;9.47;;;;;;;;;;5001985;28;20494;-84
2021/08/31 02:48:37;;;;;;;17.03;9.10;;;;;;;;;;5000089;28;20256;-84
2021/08/31 02:51:06;;;;;;;22.40;10.00;;;;;;;;;;5002193;28;20290;-86
2021/08/31 02:53:33;;;;;;;20.03;9.17;;;;;;;;;;5003388;28;20227;-84
2021/08/31 02:56:00;;;;;;;18.87;9.30;;;;;;;;;;5004753;28;20723;-84
2021/08/31 02:58:28;;;;;;;17.13;9.77;;;;;;;;;;5006602;28;20291;-84
2021/08/31 03:01:34;;;;;;;18.23;9.87;;;;;;;;;;4999049;28;20721;-85
2021/08/31 03:04:01;;;;;;;21.23;9.57;;;;;;;;;;5004257;28;20250;-84
2021/08/31 03:06:31;;;;;;;21.67;10.20;;;;;;;;;;5001985;28;20252;-84
2021/08/31 03:08:58;;;;;;;17.63;8.90;;;;;;;;;;5001954;28;20690;-84
2021/08/31 03:11:27;;;;;;;21.27;9.73;;;;;;;;;;5002487;28;20254;-84
2021/08/31 03:13:55;;;;;;;20.93;9.43;;;;;;;;;;5002966;28;20216;-85
2021/08/31 03:16:22;;;;;;;18.17;9.40;;;;;;;;;;5006527;28;20201;-84
2021/08/31 03:18:49;;;;;;;20.00;9.73;;;;;;;;;;5006573;28;20218;-84
2021/08/31 03:21:16;;;;;;;16.80;8.77;;;;;;;;;;5002766;28;20234;-84
2021/08/31 03:23:45;;;;;;;20.23;9.87;;;;;;;;;;5004623;28;20205;-84
2021/08/31 03:26:12;;;;;;;19.63;9.67;;;;;;;;;;5003169;28;20203;-85
2021/08/31 03:28:39;;;;;;;18.53;9.50;;;;;;;;;;5007509;28;20311;-85
2021/08/31 03:31:06;;;;;;;17.53;9.60;;;;;;;;;;5019496;28;20213;-83
2021/08/31 03:33:34;;;;;;;19.57;9.30;;;;;;;;;;5023423;28;20258;-84
2021/08/31 03:36:04;;;;;;;17.13;9.57;;;;;;;;;;5010451;28;20201;-84
2021/08/31 03:38:31;;;;;;;24.97;11.10;;;;;;;;;;5000350;28;20216;-84
2021/08/31 03:41:00;;;;;;;18.20;9.33;;;;;;;;;;5003523;28;20226;-84
2021/08/31 03:43:27;;;;;;;16.40;8.97;;;;;;;;;;5005262;28;21213;-83
2021/08/31 03:45:55;;;;;;;16.13;8.73;;;;;;;;;;5003356;28;20581;-83
2021/08/31 03:48:22;;;;;;;19.33;9.17;;;;;;;;;;5000733;28;20228;-84
2021/08/31 03:50:49;;;;;;;21.00;8.80;;;;;;;;;;5000444;28;20677;-84
2021/08/31 03:53:16;;;;;;;17.40;8.40;;;;;;;;;;5001081;28;20312;-83
2021/08/31 03:55:43;;;;;;;22.33;9.13;;;;;;;;;;5002749;28;20232;-83
2021/08/31 03:58:12;;;;;;;16.07;8.27;;;;;;;;;;5002116;28;20211;-83
2021/08/31 04:00:39;;;;;;;17.20;9.50;;;;;;;;;;4999498;28;20317;-84
2021/08/31 04:03:06;;;;;;;20.13;8.47;;;;;;;;;;5002343;28;20590;-84
2021/08/31 04:05:33;;;;;;;16.63;8.60;;;;;;;;;;4994495;28;20290;-84
2021/08/31 04:08:00;;;;;;;13.43;8.40;;;;;;;;;;5013889;28;20216;-85
2021/08/31 04:10:28;;;;;;;15.37;8.93;;;;;;;;;;5022878;28;20196;-85
2021/08/31 04:12:55;;;;;;;16.53;8.97;;;;;;;;;;5019643;28;20882;-85
2021/08/31 04:15:23;;;;;;;21.60;9.53;;;;;;;;;;5016529;28;20662;-84
2021/08/31 04:17:51;;;;;;;15.47;8.47;;;;;;;;;;5009620;28;20205;-85
2021/08/31 04:20:18;;;;;;;15.33;8.00;;;;;;;;;;5012222;28;20204;-83
2021/08/31 04:22:45;;;;;;;23.17;8.57;;;;;;;;;;5013192;28;20311;-84
2021/08/31 04:25:18;;;;;;;13.07;7.83;;;;;;;;;;5010487;28;20275;-84
2021/08/31 04:27:45;;;;;;;23.23;9.07;;;;;;;;;;5009405;28;20204;-84
2021/08/31 04:30:13;;;;;;;16.97;9.50;;;;;;;;;;5011055;28;20204;-84
2021/08/31 04:32:42;;;;;;;13.70;8.83;;;;;;;;;;5018068;28;20197;-85
2021/08/31 04:35:09;;;;;;;18.00;8.77;;;;;;;;;;5013420;28;20238;-84
2021/08/31 04:37:36;;;;;;;15.50;8.80;;;;;;;;;;5019649;28;20219;-85
2021/08/31 04:40:04;;;;;;;16.47;9.20;;;;;;;;;;5010744;28;20240;-84
2021/08/31 04:42:31;;;;;;;16.83;9.17;;;;;;;;;;5013318;28;20764;-84
2021/08/31 04:44:58;;;;;;;14.93;8.77;;;;;;;;;;5008014;28;20295;-84
2021/08/31 04:47:26;;;;;;;20.20;9.37;;;;;;;;;;5004867;28;20254;-84
2021/08/31 04:49:54;;;;;;;15.83;8.87;;;;;;;;;;5004683;28;20227;-84
2021/08/31 04:52:21;;;;;;;21.93;9.37;;;;;;;;;;5005263;28;20315;-84
2021/08/31 04:54:49;;;;;;;16.53;8.63;;;;;;;;;;5006183;28;20291;-85
2021/08/31 04:57:16;;;;;;;13.80;8.40;;;;;;;;;;5007922;28;20204;-85
2021/08/31 04:59:43;;;;;;;17.03;9.43;;;;;;;;;;5008745;28;20256;-84
2021/08/31 05:02:10;;;;;;;22.07;9.03;;;;;;;;;;5006372;28;20825;-84
2021/08/31 05:04:37;;;;;;;15.60;8.90;;;;;;;;;;5019207;28;20205;-85
2021/08/31 05:07:10;;;;;;;25.53;11.17;;;;;;;;;;5019334;28;20204;-86
2021/08/31 05:09:37;;;;;;;19.03;9.50;;;;;;;;;;5021568;28;20221;-85
2021/08/31 05:12:05;;;;;;;15.17;9.07;;;;;;;;;;5022312;28;20247;-86
2021/08/31 05:14:32;;;;;;;18.00;9.30;;;;;;;;;;5030085;28;20177;-84
2021/08/31 05:16:59;;;;;;;16.70;8.63;;;;;;;;;;5034422;28;20199;-85
2021/08/31 05:19:27;;;;;;;16.00;8.90;;;;;;;;;;5017230;28;20216;-85
2021/08/31 05:21:54;;;;;;;19.93;9.83;;;;;;;;;;5005051;28;20291;-85
2021/08/31 05:24:24;;;;;;;15.53;8.97;;;;;;;;;;5007857;28;20276;-84
2021/08/31 05:26:52;;;;;;;20.20;9.87;;;;;;;;;;5011197;28;20296;-85
2021/08/31 05:29:19;;;;;;;18.97;9.57;;;;;;;;;;5010543;28;20283;-85
2021/08/31 05:31:46;;;;;;;20.67;9.53;;;;;;;;;;5013828;28;20255;-86
2021/08/31 05:34:14;;;;;;;18.47;9.30;;;;;;;;;;5010425;28;20285;-84
2021/08/31 05:36:41;;;;;;;17.70;9.13;;;;;;;;;;5013969;28;20216;-85
2021/08/31 05:39:09;;;;;;;16.17;7.87;;;;;;;;;;5008713;28;20292;-85
2021/08/31 05:41:38;;;;;;;14.50;7.60;;;;;;;;;;5011365;28;20271;-85
2021/08/31 05:44:05;;;;;;;13.90;6.90;;;;;;;;;;5007409;28;20273;-85
2021/08/31 05:46:33;;;;;;;12.23;6.37;;;;;;;;;;5011347;28;20321;-85
2021/08/31 05:49:00;;;;;;;11.60;6.87;;;;;;;;;;5005540;28;20640;-84
2021/08/31 05:51:28;;;;;;;11.63;7.17;;;;;;;;;;5006349;28;20228;-85
2021/08/31 05:53:55;;;;;;;11.93;6.13;;;;;;;;;;5022159;28;20235;-84
2021/08/31 05:56:22;;;;;;;17.57;6.93;;;;;;;;;;5023781;28;20204;-85
2021/08/31 05:58:51;;;;;;;14.10;6.73;;;;;;;;;;5018945;28;20242;-85
2021/08/31 06:01:18;;;;;;;10.10;6.30;;;;;;;;;;5015439;28;20385;-85
2021/08/31 06:03:45;;;;;;;11.50;6.97;;;;;;;;;;5016036;28;20227;-85
2021/08/31 06:06:15;;;;;;;14.53;7.27;;;;;;;;;;5018207;28;20228;-85
2021/08/31 06:08:42;;;;;;;14.37;6.83;;;;;;;;;;5013001;28;20288;-85
2021/08/31 06:11:10;;;;;;;15.87;7.47;;;;;;;;;;5016484;28;20231;-84
2021/08/31 06:13:37;;;;;;;14.70;7.43;;;;;;;;;;5019523;28;20224;-85
2021/08/31 06:16:06;;;;;;;10.73;6.93;;;;;;;;;;5015730;28;20208;-84
2021/08/31 06:18:33;;;;;;;17.93;7.30;;;;;;;;;;5017314;28;20236;-85
2021/08/31 06:21:00;;;;;;;27.17;8.30;;;;;;;;;;5017844;28;20227;-85
2021/08/31 06:23:28;;;;;;;12.40;8.00;;;;;;;;;;5021292;28;20271;-84
2021/08/31 06:25:55;;;;;;;16.30;8.13;;;;;;;;;;5020316;28;20216;-85
2021/08/31 06:28:22;;;;;;;13.67;7.83;;;;;;;;;;5019348;28;20208;-85
2021/08/31 06:30:49;;;;;;;18.53;8.03;;;;;;;;;;5015736;28;20263;-84
2021/08/31 06:33:18;;;;;;;16.50;7.60;;;;;;;;;;5014559;28;20248;-85
2021/08/31 06:35:45;;;;;;;19.03;8.60;;;;;;;;;;5018710;28;20235;-84
2021/08/31 06:38:12;;;;;;;17.00;7.80;;;;;;;;;;5018130;28;20243;-84
2021/08/31 06:40:39;;;;;;;24.17;9.37;;;;;;;;;;5013222;28;20255;-85
2021/08/31 06:43:06;;;;;;;13.07;7.70;;;;;;;;;;5018285;28;20205;-85
2021/08/31 06:45:34;;;;;;;19.67;8.03;;;;;;;;;;5017327;28;20242;-85
2021/08/31 06:48:01;;;;;;;10.47;6.67;;;;;;;;;;5016004;28;20259;-85
2021/08/31 06:50:30;;;;;;;17.27;7.40;;;;;;;;;;5015463;28;20705;-84
2021/08/31 06:52:57;;;;;;;15.00;7.97;;;;;;;;;;5020399;28;20673;-85
2021/08/31 06:55:24;;;;;;;14.27;7.57;;;;;;;;;;5020865;28;20248;-86
2021/08/31 06:57:51;;;;;;;13.37;8.23;;;;;;;;;;5015859;28;20240;-85
2021/08/31 07:00:19;;;;;;;18.90;8.40;;;;;;;;;;5020704;28;20220;-85
2021/08/31 07:02:46;;;;;;;16.50;8.63;;;;;;;;;;5015292;28;20235;-85
2021/08/31 07:05:13;;;;;;;15.63;8.60;;;;;;;;;;5016065;28;20216;-86
2021/08/31 07:07:42;;;;;;;19.90;9.17;;;;;;;;;;5017996;28;20262;-85
2021/08/31 07:10:10;;;;;;;12.87;7.37;;;;;;;;;;5015232;28;20283;-86
2021/08/31 07:12:37;;;;;;;16.90;8.10;;;;;;;;;;5013826;28;20275;-85
2021/08/31 07:15:05;;;;;;;19.03;8.17;;;;;;;;;;5010546;28;20229;-85
2021/08/31 07:17:32;;;;;;;20.00;8.80;;;;;;;;;;5013396;28;20243;-86
2021/08/31 07:19:59;;;;;;;15.73;7.43;;;;;;;;;;5013942;28;20251;-86
2021/08/31 07:22:27;;;;;;;10.63;7.03;;;;;;;;;;5008940;28;20766;-86
2021/08/31 07:24:56;;;;;;;17.80;8.10;;;;;;;;;;5010972;28;20221;-87
2021/08/31 07:27:23;;;;;;;17.07;7.30;;;;;;;;;;5011079;28;20208;-86
2021/08/31 07:29:51;;;;;;;16.87;7.20;;;;;;;;;;5008687;28;20252;-87
2021/08/31 07:32:18;;;;;;;14.50;8.23;;;;;;;;;;5015982;28;20237;-87
2021/08/31 07:34:45;;;;;;;12.80;7.90;;;;;;;;;;5009377;28;20633;-87
2021/08/31 07:37:13;;;;;;;10.63;6.40;;;;;;;;;;5003327;28;20236;-87
2021/08/31 07:39:41;;;;;;;13.40;7.77;;;;;;;;;;5009116;28;20270;-87
2021/08/31 07:42:10;;;;;;;13.67;8.20;;;;;;;;;;5008708;28;20225;-87
2021/08/31 07:44:37;;;;;;;13.23;6.83;;;;;;;;;;5011740;28;20279;-84
2021/08/31 07:47:04;;;;;;;9.20;6.00;;;;;;;;;;5011052;28;20278;-86
2021/08/31 07:49:32;;;;;;;12.47;6.23;;;;;;;;;;5012744;28;20228;-85
2021/08/31 07:51:59;;;;;;;10.73;6.43;;;;;;;;;;5011907;28;20232;-85
2021/08/31 07:54:26;;;;;;;14.40;7.20;;;;;;;;;;5011459;28;20204;-86
2021/08/31 07:56:53;;;;;;;13.07;7.47;;;;;;;;;;5015227;28;20204;-85
2021/08/31 07:59:22;;;;;;;9.90;6.67;;;;;;;;;;5017001;28;20208;-85
2021/08/31 08:01:49;;;;;;;12.03;7.47;;;;;;;;;;5012489;28;20771;-85
2021/08/31 08:04:16;;;;;;;12.70;8.03;;;;;;;;;;5006620;28;20212;-86
2021/08/31 08:06:44;;;;;;;11.83;7.93;;;;;;;;;;5010875;28;20201;-86
2021/08/31 08:09:11;;;;;;;10.73;6.43;;;;;;;;;;5012964;28;20220;-86
2021/08/31 08:11:38;;;;;;;14.00;8.37;;;;;;;;;;5016968;28;20220;-87
2021/08/31 08:14:07;;;;;;;11.77;7.77;;;;;;;;;;5006849;28;20209;-86
2021/08/31 08:16:35;;;;;;;10.50;6.33;;;;;;;;;;5014925;28;20768;-86
2021/08/31 08:19:02;;;;;;;9.90;6.80;;;;;;;;;;5014259;28;20204;-85
2021/08/31 08:21:30;;;;;;;10.13;6.90;;;;;;;;;;5016233;28;20263;-86
2021/08/31 08:23:57;;;;;;;13.07;8.17;;;;;;;;;;5016998;28;20212;-87
2021/08/31 08:26:24;;;;;;;14.47;7.33;;;;;;;;;;5015219;28;20232;-86
2021/08/31 08:28:52;;;;;;;18.00;8.13;;;;;;;;;;5015566;28;20200;-86
2021/08/31 08:31:19;;;;;;;10.90;6.57;;;;;;;;;;5013109;28;20311;-88
2021/08/31 08:33:48;;;;;;;13.23;7.90;;;;;;;;;;5014223;28;20282;-85
2021/08/31 08:36:16;;;;;;;9.23;6.80;;;;;;;;;;5016078;28;20204;-85
2021/08/31 08:38:44;;;;;;;12.27;8.00;;;;;;;;;;5014098;28;20219;-86
2021/08/31 08:41:11;;;;;;;18.00;8.37;;;;;;;;;;5019653;28;20227;-85
2021/08/31 08:43:38;;;;;;;13.30;8.00;;;;;;;;;;5024042;28;20208;-85
2021/08/31 08:46:07;;;;;;;13.93;7.13;;;;;;;;;;5021222;28;20208;-85
2021/08/31 08:48:35;;;;;;;15.50;8.50;;;;;;;;;;5009032;28;20397;-86
2021/08/31 08:51:04;;;;;;;12.30;6.90;;;;;;;;;;5011917;28;20231;-86
2021/08/31 08:53:33;;;;;;;12.43;7.33;;;;;;;;;;5006160;28;20244;-86
2021/08/31 08:56:01;;;;;;;16.87;8.23;;;;;;;;;;4997920;28;20213;-86
2021/08/31 08:58:29;;;;;;;11.27;7.60;;;;;;;;;;4998529;28;20216;-85
2021/08/31 09:01:00;;;;;;;16.67;8.10;;;;;;;;;;5001493;28;20307;-85
2021/08/31 09:03:27;;;;;;;14.50;8.10;;;;;;;;;;5000672;28;20212;-84
2021/08/31 09:06:10;;;;;;;12.07;7.80;;;;;;;;;;5000362;28;20207;-83
2021/08/31 09:08:39;;;;;;;15.23;8.93;;;;;;;;;;5002487;28;20224;-84
2021/08/31 09:11:17;;;;;;;14.73;8.67;;;;;;;;;;5005019;28;20229;-85
2021/08/31 09:13:44;;;;;;;18.53;8.10;;;;;;;;;;5006512;28;20667;-85
2021/08/31 09:16:22;;;;;;;13.87;7.63;;;;;;;;;;5002494;28;20230;-85
2021/08/31 09:18:51;;;;;;;12.23;6.63;;;;;;;;;;5016712;28;20211;-85
2021/08/31 09:21:23;;;;;;;10.63;6.60;;;;;;;;;;5013207;28;20260;-85
2021/08/31 09:23:51;;;;;;;11.70;7.40;;;;;;;;;;5006879;28;20213;-86
2021/08/31 09:26:19;;;;;;;13.40;7.50;;;;;;;;;;5006526;28;20220;-86
2021/08/31 09:28:49;;;;;;;12.77;7.33;;;;;;;;;;5007004;28;20318;-86
2021/08/31 09:31:19;;;;;;;12.30;7.63;;;;;;;;;;5003844;28;20232;-83
2021/08/31 09:33:47;;;;;;;14.60;6.93;;;;;;;;;;5006556;28;20208;-84
2021/08/31 09:36:16;;;;;;;10.77;6.63;;;;;;;;;;5006756;28;20650;-84
2021/08/31 09:38:54;;;;;;;13.43;7.13;;;;;;;;;;5007856;28;20230;-85
2021/08/31 09:41:28;;;;;;;11.13;6.43;;;;;;;;;;5010337;28;20232;-85
2021/08/31 09:43:56;;;;;;;14.07;6.03;;;;;;;;;;5023695;28;20232;-88
2021/08/31 09:46:23;;;;;;;11.13;7.10;;;;;;;;;;5021184;28;20211;-86
2021/08/31 09:48:50;;;;;;;14.77;6.77;;;;;;;;;;5020466;28;20208;-86
2021/08/31 09:51:18;;;;;;;9.77;6.50;;;;;;;;;;5020921;28;20228;-87
2021/08/31 09:53:45;;;;;;;10.17;6.60;;;;;;;;;;5018171;28;20200;-86
2021/08/31 09:56:15;;;;;;;10.67;6.73;;;;;;;;;;5017102;28;20211;-84
2021/08/31 09:58:43;;;;;;;9.63;6.20;;;;;;;;;;5012692;28;20196;-85
2021/08/31 10:01:11;;;;;;;12.60;6.30;;;;;;;;;;5016843;28;20287;-85
2021/08/31 10:03:39;;;;;;;10.50;6.20;;;;;;;;;;5018485;28;20243;-85
2021/08/31 10:06:08;;;;;;;11.93;6.30;;;;;;;;;;5017937;28;20708;-85
2021/08/31 10:08:37;;;;;;;9.43;6.30;;;;;;;;;;5013834;28;20626;-87
2021/08/31 10:11:05;;;;;;;10.30;6.77;;;;;;;;;;5014327;28;20232;-84
2021/08/31 10:13:37;;;;;;;10.03;6.50;;;;;;;;;;5020450;28;20208;-84
2021/08/31 10:16:04;;;;;;;10.33;5.60;;;;;;;;;;5017319;28;20219;-85
2021/08/31 10:18:31;;;;;;;9.10;5.10;;;;;;;;;;5019978;28;21983;-86
2021/08/31 10:21:01;;;;;;;12.77;6.13;;;;;;;;;;5017610;28;20268;-85
2021/08/31 10:23:31;;;;;;;10.43;5.50;;;;;;;;;;5023640;28;20243;-85
2021/08/31 10:26:13;;;;;;;10.67;5.80;;;;;;;;;;5022259;28;20248;-89
2021/08/31 10:28:42;;;;;;;8.50;5.43;;;;;;;;;;5021900;28;20209;-85
2021/08/31 10:31:28;;;;;;;9.07;5.13;;;;;;;;;;5018576;28;20287;-85
2021/08/31 10:33:55;;;;;;;8.90;5.67;;;;;;;;;;5010608;28;20279;-86
2021/08/31 10:36:35;;;;;;;7.67;5.13;;;;;;;;;;5014817;28;20573;-88
2021/08/31 10:39:06;;;;;;;7.80;5.20;;;;;;;;;;5009928;28;20221;-86
2021/08/31 10:41:42;;;;;;;8.83;5.17;;;;;;;;;;5013252;28;20231;-85
2021/08/31 10:44:12;;;;;;;8.60;5.27;;;;;;;;;;5010157;28;20638;-85
2021/08/31 10:46:57;;;;;;;8.67;5.67;;;;;;;;;;5013560;28;20204;-85
2021/08/31 10:49:25;;;;;;;8.80;5.37;;;;;;;;;;5005506;28;20239;-84
2021/08/31 10:52:05;;;;;;;14.27;5.83;;;;;;;;;;5012887;28;20232;-83
2021/08/31 10:54:44;;;;;;;10.27;5.87;;;;;;;;;;5013931;28;20217;-84
2021/08/31 10:57:26;;;;;;;8.73;5.27;;;;;;;;;;5014378;28;20213;-84
2021/08/31 10:59:55;;;;;;;11.40;5.83;;;;;;;;;;5015905;28;20197;-85
2021/08/31 11:02:37;;;;;;;9.20;5.80;;;;;;;;;;5018355;28;20220;-84
2021/08/31 11:05:22;;;;;;;9.20;5.70;;;;;;;;;;5015127;28;20642;-86
2021/08/31 11:07:50;;;;;;;9.60;5.60;;;;;;;;;;5009751;28;20304;-85
2021/08/31 11:10:20;;;;;;;10.93;5.50;;;;;;;;;;5016536;28;20267;-86
2021/08/31 11:12:48;;;;;;;10.70;6.30;;;;;;;;;;5018076;28;20244;-86
2021/08/31 11:15:21;;;;;;;7.67;4.97;;;;;;;;;;5018384;28;20631;-86
2021/08/31 11:17:50;;;;;;;10.77;5.70;;;;;;;;;;5013540;28;20209;-84
2021/08/31 11:20:19;;;;;;;8.90;5.37;;;;;;;;;;5009027;28;20208;-90
2021/08/31 11:22:48;;;;;;;10.30;5.50;;;;;;;;;;5013383;28;20220;-84
2021/08/31 11:25:15;;;;;;;7.80;5.20;;;;;;;;;;5016452;28;20673;-85
2021/08/31 11:27:50;;;;;;;9.87;5.80;;;;;;;;;;5020837;28;20231;-85
2021/08/31 11:30:17;;;;;;;10.23;5.53;;;;;;;;;;5019764;28;20228;-86
2021/08/31 11:32:46;;;;;;;10.40;5.83;;;;;;;;;;5021097;28;20197;-85
2021/08/31 11:35:13;;;;;;;8.13;5.13;;;;;;;;;;5018105;28;20236;-86
2021/08/31 11:37:50;;;;;;;9.40;5.40;;;;;;;;;;5017566;28;20236;-86
2021/08/31 11:40:25;;;;;;;8.03;5.57;;;;;;;;;;5011359;28;20271;-88
2021/08/31 11:42:53;;;;;;;8.30;5.20;;;;;;;;;;5015647;28;20205;-85
2021/08/31 11:45:22;;;;;;;9.37;5.50;;;;;;;;;;5015906;28;20281;-87
2021/08/31 11:47:55;;;;;;;7.67;5.30;;;;;;;;;;5016366;28;20214;-85
2021/08/31 11:50:22;;;;;;;10.57;4.90;;;;;;;;;;5020304;28;20228;-86
2021/08/31 11:52:49;;;;;;;8.27;5.37;;;;;;;;;;5017560;28;20428;-86
2021/08/31 11:55:23;;;;;;;10.00;5.37;;;;;;;;;;5019423;28;20231;-85
2021/08/31 11:57:50;;;;;;;9.67;4.93;;;;;;;;;;5012117;28;20216;-85
2021/08/31 12:00:17;;;;;;;8.37;5.13;;;;;;;;;;5010446;28;20292;-85
2021/08/31 12:02:45;;;;;;;8.80;5.40;;;;;;;;;;5018439;28;20220;-85
2021/08/31 12:05:14;;;;;;;8.13;5.00;;;;;;;;;;5017298;28;20197;-85
2021/08/31 12:07:41;;;;;;;10.63;5.40;;;;;;;;;;5017090;28;20215;-85
2021/08/31 12:10:09;;;;;;;10.77;5.80;;;;;;;;;;5011568;28;20228;-85
2021/08/31 12:12:37;;;;;;;9.10;5.50;;;;;;;;;;5017389;28;20647;-85
2021/08/31 12:15:05;;;;;;;8.23;5.70;;;;;;;;;;5014508;28;20208;-85
2021/08/31 12:17:34;;;;;;;10.37;5.60;;;;;;;;;;5011759;28;20688;-85
2021/08/31 12:20:05;;;;;;;10.63;5.30;;;;;;;;;;5014083;28;20217;-86
2021/08/31 12:22:36;;;;;;;14.97;5.80;;;;;;;;;;5010763;28;20237;-85
2021/08/31 12:25:03;;;;;;;9.37;5.83;;;;;;;;;;5012482;28;20663;-85
2021/08/31 12:27:37;;;;;;;11.50;6.00;;;;;;;;;;5011259;28;20216;-85
2021/08/31 12:30:05;;;;;;;11.57;6.10;;;;;;;;;;5000913;28;20619;-84
2021/08/31 12:32:35;;;;;;;11.13;5.90;;;;;;;;;;5004596;28;20225;-86
2021/08/31 12:35:20;;;;;;;8.63;5.03;;;;;;;;;;5004066;28;20292;-85
2021/08/31 12:37:49;;;;;;;13.83;5.80;;;;;;;;;;5001008;28;20216;-85
2021/08/31 12:40:18;;;;;;;9.97;5.37;;;;;;;;;;5004777;28;20247;-85
2021/08/31 12:42:47;;;;;;;8.73;5.10;;;;;;;;;;5002527;28;20287;-85
2021/08/31 12:45:14;;;;;;;12.57;5.30;;;;;;;;;;5006310;28;20438;-85
2021/08/31 12:47:52;;;;;;;10.37;4.83;;;;;;;;;;5007665;28;20373;-85
2021/08/31 12:50:19;;;;;;;12.77;5.40;;;;;;;;;;5003890;28;20265;-85
2021/08/31 12:52:57;;;;;;;8.10;5.07;;;;;;;;;;5007904;28;20224;-85
2021/08/31 12:55:29;;;;;;;8.33;5.17;;;;;;;;;;5007369;28;20230;-85
2021/08/31 12:57:56;;;;;;;8.77;5.00;;;;;;;;;;5009550;28;20296;-85
2021/08/31 13:00:24;;;;;;;8.83;4.67;;;;;;;;;;5008783;28;20244;-85
2021/08/31 13:02:55;;;;;;;9.57;5.00;;;;;;;;;;5011242;28;20267;-85
2021/08/31 13:05:24;;;;;;;7.30;4.70;;;;;;;;;;5010197;28;20236;-84
2021/08/31 13:07:52;;;;;;;7.67;4.57;;;;;;;;;;5012956;28;20697;-85
2021/08/31 13:10:19;;;;;;;10.53;4.83;;;;;;;;;;5006903;28;20212;-85
2021/08/31 13:12:48;;;;;;;9.00;4.90;;;;;;;;;;5010887;28;20247;-85
2021/08/31 13:15:16;;;;;;;9.23;4.50;;;;;;;;;;5009255;28;20208;-84
2021/08/31 13:17:43;;;;;;;8.17;4.63;;;;;;;;;;5007314;28;20279;-84
2021/08/31 13:20:11;;;;;;;7.30;4.73;;;;;;;;;;5013007;28;20752;-85
2021/08/31 13:22:38;;;;;;;7.43;4.50;;;;;;;;;;5010693;28;20319;-85
2021/08/31 13:25:08;;;;;;;11.27;4.50;;;;;;;;;;5005396;28;20211;-85
2021/08/31 13:27:35;;;;;;;8.77;4.30;;;;;;;;;;5016015;28;20240;-85
2021/08/31 13:30:04;;;;;;;7.43;4.53;;;;;;;;;;5020311;28;20235;-84
2021/08/31 13:32:31;;;;;;;7.50;4.57;;;;;;;;;;5017326;28;20228;-85
2021/08/31 13:34:58;;;;;;;6.20;4.00;;;;;;;;;;5009009;28;20619;-90
2021/08/31 13:37:25;;;;;;;7.67;4.37;;;;;;;;;;5011220;28;20299;-84
2021/08/31 13:39:53;;;;;;;5.90;3.70;;;;;;;;;;5011808;28;20213;-87
2021/08/31 13:42:20;;;;;;;6.70;3.90;;;;;;;;;;5012172;28;20271;-84
2021/08/31 13:44:47;;;;;;;7.20;3.77;;;;;;;;;;5014694;28;20240;-84
2021/08/31 13:47:15;;;;;;;6.93;3.70;;;;;;;;;;5020920;28;20289;-84
2021/08/31 13:49:43;;;;;;;5.90;3.90;;;;;;;;;;5022736;28;20228;-84
2021/08/31 13:52:10;;;;;;;7.90;3.77;;;;;;;;;;5018325;28;20232;-83
2021/08/31 13:54:37;;;;;;;8.73;4.37;;;;;;;;;;5010403;28;20287;-84
2021/08/31 13:57:04;;;;;;;9.00;4.23;;;;;;;;;;5017725;28;20254;-85
2021/08/31 13:59:31;;;;;;;5.77;3.83;;;;;;;;;;5010340;28;20220;-84
2021/08/31 14:01:59;;;;;;;5.37;3.97;;;;;;;;;;5006657;28;20273;-84
2021/08/31 14:04:27;;;;;;;7.53;4.13;;;;;;;;;;5013881;28;20235;-84
2021/08/31 14:06:55;;;;;;;7.37;4.23;;;;;;;;;;5012439;28;20248;-85
2021/08/31 14:09:22;;;;;;;5.83;3.67;;;;;;;;;;5012910;28;20208;-85
2021/08/31 14:11:49;;;;;;;5.17;3.50;;;;;;;;;;5014198;28;20283;-83
2021/08/31 14:14:16;;;;;;;6.30;3.40;;;;;;;;;;5011585;28;20279;-85
2021/08/31 14:16:43;;;;;;;6.37;3.70;;;;;;;;;;5010847;28;20621;-86
2021/08/31 14:19:10;;;;;;;5.80;3.33;;;;;;;;;;5012906;28;20208;-84
2021/08/31 14:21:40;;;;;;;6.00;3.50;;;;;;;;;;5010887;28;20308;-84
2021/08/31 14:24:07;;;;;;;6.00;3.87;;;;;;;;;;5009464;28;20212;-83
2021/08/31 14:26:34;;;;;;;5.03;3.27;;;;;;;;;;5011176;28;20212;-85
2021/08/31 14:29:01;;;;;;;7.00;3.80;;;;;;;;;;5013600;28;20232;-84
2021/08/31 14:31:29;;;;;;;6.07;3.57;;;;;;;;;;5010454;28;20271;-84
2021/08/31 14:33:56;;;;;;;6.30;3.90;;;;;;;;;;5005268;28;20545;-84
2021/08/31 14:36:23;;;;;;;8.10;4.00;;;;;;;;;;5012354;28;20200;-84
2021/08/31 14:38:52;;;;;;;7.00;3.63;;;;;;;;;;5010506;28;20357;-84